sensor_id;sensor_type;location;lat;lon;timestamp;P1;durP1;ratioP1;P2;durP2;ratioP2
21416;SDS011;10869;52.238;10.716;2023-05-01T03:03:18;9.23;;;2.83;;
21416;SDS011;10869;52.238;10.716;2023-05-01T03:05:46;11.97;;;2.87;;
21416;SDS011;10869;52.238;10.716;2023-05-01T03:08:14;9.67;;;3.03;;
21416;SDS011;10869;52.238;10.716;2023-05-01T03:10:45;16.03;;;3.00;;
21416;SDS011;10869;52.238;10.716;2023-05-01T03:13:14;16.33;;;3.73;;
21416;SDS011;10869;52.238;10.716;2023-05-01T03:15:40;9.00;;;2.43;;
21416;SDS011;10869;52.238;10.716;2023-05-01T03:18:09;10.70;;;2.87;;
21416;SDS011;10869;52.238;10.716;2023-05-01T03:20:35;10.50;;;2.97;;
21416;SDS011;10869;52.238;10.716;2023-05-01T03:23:03;6.73;;;2.50;;
21416;SDS011;10869;52.238;10.716;2023-05-01T03:25:30;10.60;;;2.77;;
21416;SDS011;10869;52.238;10.716;2023-05-01T03:27:57;9.70;;;3.40;;
21416;SDS011;10869;52.238;10.716;2023-05-01T03:33:09;9.33;;;2.63;;
21416;SDS011;10869;52.238;10.716;2023-05-01T03:36:17;9.33;;;3.37;;
21416;SDS011;10869;52.238;10.716;2023-05-01T03:38:42;9.13;;;2.70;;
21416;SDS011;10869;52.238;10.716;2023-05-01T03:41:15;6.47;;;2.43;;
21416;SDS011;10869;52.238;10.716;2023-05-01T03:43:49;8.87;;;3.07;;
21416;SDS011;10869;52.238;10.716;2023-05-01T03:46:24;11.33;;;3.10;;
21416;SDS011;10869;52.238;10.716;2023-05-01T03:48:51;11.20;;;3.20;;
21416;SDS011;10869;52.238;10.716;2023-05-01T03:51:16;9.30;;;2.80;;
21416;SDS011;10869;52.238;10.716;2023-05-01T03:53:42;11.80;;;3.17;;
21416;SDS011;10869;52.238;10.716;2023-05-01T03:56:09;14.33;;;3.43;;
21416;SDS011;10869;52.238;10.716;2023-05-01T03:58:36;10.47;;;3.33;;
21416;SDS011;10869;52.238;10.716;2023-05-01T04:01:01;9.83;;;3.17;;
21416;SDS011;10869;52.238;10.716;2023-05-01T04:03:28;11.33;;;3.33;;
21416;SDS011;10869;52.238;10.716;2023-05-01T04:05:55;11.13;;;3.17;;
21416;SDS011;10869;52.238;10.716;2023-05-01T04:08:30;14.80;;;3.67;;
21416;SDS011;10869;52.238;10.716;2023-05-01T04:10:57;9.40;;;3.47;;
21416;SDS011;10869;52.238;10.716;2023-05-01T04:13:23;10.10;;;3.60;;
21416;SDS011;10869;52.238;10.716;2023-05-01T04:15:49;13.47;;;3.73;;
21416;SDS011;10869;52.238;10.716;2023-05-01T04:18:21;8.97;;;2.87;;
21416;SDS011;10869;52.238;10.716;2023-05-01T04:27:20;13.90;;;3.73;;
21416;SDS011;10869;52.238;10.716;2023-05-01T04:29:52;16.13;;;3.00;;
21416;SDS011;10869;52.238;10.716;2023-05-01T04:32:18;11.33;;;3.20;;
21416;SDS011;10869;52.238;10.716;2023-05-01T04:34:50;11.43;;;3.20;;
21416;SDS011;10869;52.238;10.716;2023-05-01T04:37:31;11.17;;;4.10;;
21416;SDS011;10869;52.238;10.716;2023-05-01T04:40:00;7.73;;;3.10;;
21416;SDS011;10869;52.238;10.716;2023-05-01T04:42:33;10.77;;;3.47;;
21416;SDS011;10869;52.238;10.716;2023-05-01T04:45:01;12.63;;;4.03;;
21416;SDS011;10869;52.238;10.716;2023-05-01T04:51:02;9.90;;;3.30;;
21416;SDS011;10869;52.238;10.716;2023-05-01T04:53:28;11.57;;;3.20;;
21416;SDS011;10869;52.238;10.716;2023-05-01T04:55:54;9.77;;;3.20;;
21416;SDS011;10869;52.238;10.716;2023-05-01T04:58:21;8.33;;;2.80;;
21416;SDS011;10869;52.238;10.716;2023-05-01T05:00:49;8.37;;;2.67;;
21416;SDS011;10869;52.238;10.716;2023-05-01T05:03:15;7.63;;;3.17;;
21416;SDS011;10869;52.238;10.716;2023-05-01T05:05:43;13.20;;;3.03;;
21416;SDS011;10869;52.238;10.716;2023-05-01T05:08:13;9.03;;;2.83;;
21416;SDS011;10869;52.238;10.716;2023-05-01T05:10:39;11.57;;;2.97;;
21416;SDS011;10869;52.238;10.716;2023-05-01T05:13:06;7.40;;;2.70;;
21416;SDS011;10869;52.238;10.716;2023-05-01T05:15:35;8.13;;;2.80;;
21416;SDS011;10869;52.238;10.716;2023-05-01T05:18:01;11.33;;;2.93;;
21416;SDS011;10869;52.238;10.716;2023-05-01T05:20:27;9.40;;;3.07;;
21416;SDS011;10869;52.238;10.716;2023-05-01T05:22:53;11.57;;;3.30;;
21416;SDS011;10869;52.238;10.716;2023-05-01T05:25:18;7.70;;;2.97;;
21416;SDS011;10869;52.238;10.716;2023-05-01T05:27:44;14.93;;;3.60;;
21416;SDS011;10869;52.238;10.716;2023-05-01T05:30:12;8.33;;;3.13;;
21416;SDS011;10869;52.238;10.716;2023-05-01T05:32:43;7.80;;;3.10;;
21416;SDS011;10869;52.238;10.716;2023-05-01T05:35:10;8.80;;;3.17;;
21416;SDS011;10869;52.238;10.716;2023-05-01T05:37:36;10.10;;;3.20;;
21416;SDS011;10869;52.238;10.716;2023-05-01T05:40:02;9.50;;;3.30;;
21416;SDS011;10869;52.238;10.716;2023-05-01T05:42:28;9.67;;;3.47;;
21416;SDS011;10869;52.238;10.716;2023-05-01T05:44:53;10.70;;;4.03;;
21416;SDS011;10869;52.238;10.716;2023-05-01T05:47:20;11.13;;;3.40;;
21416;SDS011;10869;52.238;10.716;2023-05-01T05:49:45;9.47;;;3.00;;
21416;SDS011;10869;52.238;10.716;2023-05-01T05:52:14;12.10;;;3.60;;
21416;SDS011;10869;52.238;10.716;2023-05-01T05:54:40;10.43;;;3.30;;
21416;SDS011;10869;52.238;10.716;2023-05-01T05:57:09;9.63;;;3.40;;
21416;SDS011;10869;52.238;10.716;2023-05-01T05:59:35;7.03;;;2.97;;
21416;SDS011;10869;52.238;10.716;2023-05-01T06:02:02;9.57;;;3.30;;
21416;SDS011;10869;52.238;10.716;2023-05-01T06:04:27;11.20;;;3.23;;
21416;SDS011;10869;52.238;10.716;2023-05-01T06:06:53;10.30;;;3.27;;
21416;SDS011;10869;52.238;10.716;2023-05-01T06:09:19;6.70;;;2.80;;
21416;SDS011;10869;52.238;10.716;2023-05-01T06:11:45;10.97;;;3.77;;
21416;SDS011;10869;52.238;10.716;2023-05-01T06:14:11;14.07;;;5.37;;
21416;SDS011;10869;52.238;10.716;2023-05-01T06:19:59;11.00;;;4.63;;
21416;SDS011;10869;52.238;10.716;2023-05-01T06:25:21;11.23;;;4.27;;
21416;SDS011;10869;52.238;10.716;2023-05-01T06:27:50;16.60;;;7.00;;
21416;SDS011;10869;52.238;10.716;2023-05-01T06:30:16;16.10;;;7.07;;
21416;SDS011;10869;52.238;10.716;2023-05-01T06:32:44;13.90;;;6.73;;
21416;SDS011;10869;52.238;10.716;2023-05-01T06:35:10;13.20;;;6.33;;
21416;SDS011;10869;52.238;10.716;2023-05-01T06:37:37;17.07;;;8.27;;
21416;SDS011;10869;52.238;10.716;2023-05-01T06:40:12;21.33;;;9.37;;
21416;SDS011;10869;52.238;10.716;2023-05-01T06:42:38;19.37;;;8.40;;
21416;SDS011;10869;52.238;10.716;2023-05-01T06:48:26;17.03;;;9.70;;
21416;SDS011;10869;52.238;10.716;2023-05-01T06:50:52;22.83;;;10.77;;
21416;SDS011;10869;52.238;10.716;2023-05-01T06:53:17;21.77;;;9.80;;
21416;SDS011;10869;52.238;10.716;2023-05-01T06:55:43;20.73;;;10.63;;
21416;SDS011;10869;52.238;10.716;2023-05-01T06:58:09;23.83;;;11.67;;
21416;SDS011;10869;52.238;10.716;2023-05-01T07:03:56;21.57;;;9.77;;
21416;SDS011;10869;52.238;10.716;2023-05-01T07:09:44;24.50;;;12.77;;
21416;SDS011;10869;52.238;10.716;2023-05-01T07:15:32;22.77;;;13.93;;
21416;SDS011;10869;52.238;10.716;2023-05-01T07:18:00;24.13;;;15.10;;
21416;SDS011;10869;52.238;10.716;2023-05-01T07:20:29;29.63;;;17.43;;
21416;SDS011;10869;52.238;10.716;2023-05-01T07:22:55;32.00;;;17.70;;
21416;SDS011;10869;52.238;10.716;2023-05-01T07:25:21;31.23;;;19.63;;
21416;SDS011;10869;52.238;10.716;2023-05-01T07:27:49;30.67;;;18.40;;
21416;SDS011;10869;52.238;10.716;2023-05-01T07:30:14;27.60;;;16.97;;
21416;SDS011;10869;52.238;10.716;2023-05-01T07:32:40;26.33;;;14.30;;
21416;SDS011;10869;52.238;10.716;2023-05-01T07:35:06;19.73;;;11.90;;
21416;SDS011;10869;52.238;10.716;2023-05-01T07:37:32;20.93;;;11.30;;
21416;SDS011;10869;52.238;10.716;2023-05-01T07:39:58;18.37;;;10.63;;
21416;SDS011;10869;52.238;10.716;2023-05-01T07:42:27;24.27;;;9.93;;
21416;SDS011;10869;52.238;10.716;2023-05-01T07:44:53;20.57;;;9.80;;
21416;SDS011;10869;52.238;10.716;2023-05-01T07:47:18;15.53;;;9.47;;
21416;SDS011;10869;52.238;10.716;2023-05-01T07:49:44;21.77;;;8.70;;
21416;SDS011;10869;52.238;10.716;2023-05-01T07:52:10;16.13;;;8.77;;
21416;SDS011;10869;52.238;10.716;2023-05-01T07:54:36;16.37;;;8.63;;
21416;SDS011;10869;52.238;10.716;2023-05-01T07:57:04;15.83;;;7.63;;
21416;SDS011;10869;52.238;10.716;2023-05-01T09:14:55;12.43;;;5.57;;
21416;SDS011;10869;52.238;10.716;2023-05-01T09:17:22;12.87;;;5.87;;
21416;SDS011;10869;52.238;10.716;2023-05-01T09:23:10;9.87;;;4.60;;
21416;SDS011;10869;52.238;10.716;2023-05-01T09:25:36;10.97;;;5.13;;
21416;SDS011;10869;52.238;10.716;2023-05-01T09:28:05;14.90;;;5.63;;
21416;SDS011;10869;52.238;10.716;2023-05-01T09:30:32;12.33;;;5.83;;
21416;SDS011;10869;52.238;10.716;2023-05-01T09:33:06;10.87;;;5.63;;
21416;SDS011;10869;52.238;10.716;2023-05-01T09:35:47;12.67;;;5.70;;
21416;SDS011;10869;52.238;10.716;2023-05-01T09:38:24;12.53;;;5.60;;
21416;SDS011;10869;52.238;10.716;2023-05-01T09:41:03;12.80;;;5.10;;
21416;SDS011;10869;52.238;10.716;2023-05-01T09:43:30;10.83;;;5.47;;
21416;SDS011;10869;52.238;10.716;2023-05-01T09:48:29;10.73;;;5.07;;
21416;SDS011;10869;52.238;10.716;2023-05-01T09:50:55;11.87;;;4.60;;
21416;SDS011;10869;52.238;10.716;2023-05-01T09:53:40;12.03;;;5.50;;
21416;SDS011;10869;52.238;10.716;2023-05-01T09:56:06;9.97;;;5.57;;
21416;SDS011;10869;52.238;10.716;2023-05-01T09:58:32;10.90;;;5.30;;
21416;SDS011;10869;52.238;10.716;2023-05-01T10:00:57;11.90;;;5.70;;
21416;SDS011;10869;52.238;10.716;2023-05-01T10:03:24;10.10;;;4.70;;
21416;SDS011;10869;52.238;10.716;2023-05-01T10:05:51;10.60;;;4.03;;
21416;SDS011;10869;52.238;10.716;2023-05-01T10:08:16;9.73;;;3.93;;
21416;SDS011;10869;52.238;10.716;2023-05-01T10:10:42;9.40;;;4.30;;
21416;SDS011;10869;52.238;10.716;2023-05-01T10:13:15;9.13;;;3.80;;
21416;SDS011;10869;52.238;10.716;2023-05-01T10:15:42;8.30;;;3.80;;
21416;SDS011;10869;52.238;10.716;2023-05-01T10:18:13;10.43;;;4.33;;
21416;SDS011;10869;52.238;10.716;2023-05-01T10:20:39;11.10;;;4.33;;
21416;SDS011;10869;52.238;10.716;2023-05-01T10:23:08;9.50;;;4.40;;
21416;SDS011;10869;52.238;10.716;2023-05-01T10:25:35;8.40;;;4.37;;
21416;SDS011;10869;52.238;10.716;2023-05-01T10:28:04;9.33;;;3.83;;
21416;SDS011;10869;52.238;10.716;2023-05-01T10:30:31;8.43;;;4.43;;
21416;SDS011;10869;52.238;10.716;2023-05-01T10:32:59;10.03;;;4.67;;
21416;SDS011;10869;52.238;10.716;2023-05-01T10:35:36;10.70;;;4.67;;
21416;SDS011;10869;52.238;10.716;2023-05-01T10:38:05;8.00;;;3.73;;
21416;SDS011;10869;52.238;10.716;2023-05-01T10:48:54;8.70;;;4.27;;
21416;SDS011;10869;52.238;10.716;2023-05-01T10:51:24;10.10;;;4.57;;
21416;SDS011;10869;52.238;10.716;2023-05-01T10:56:53;12.00;;;4.37;;
21416;SDS011;10869;52.238;10.716;2023-05-01T10:59:22;8.73;;;4.33;;
21416;SDS011;10869;52.238;10.716;2023-05-01T11:01:50;8.20;;;4.40;;
21416;SDS011;10869;52.238;10.716;2023-05-01T11:09:41;10.77;;;4.37;;
21416;SDS011;10869;52.238;10.716;2023-05-01T11:12:12;9.10;;;4.07;;
21416;SDS011;10869;52.238;10.716;2023-05-01T11:20:06;9.90;;;4.40;;
21416;SDS011;10869;52.238;10.716;2023-05-01T11:22:37;11.10;;;4.53;;
21416;SDS011;10869;52.238;10.716;2023-05-01T11:25:17;6.83;;;4.10;;
21416;SDS011;10869;52.238;10.716;2023-05-01T11:27:56;9.90;;;4.60;;
21416;SDS011;10869;52.238;10.716;2023-05-01T11:30:37;9.57;;;4.30;;
21416;SDS011;10869;52.238;10.716;2023-05-01T11:33:03;9.53;;;4.03;;
21416;SDS011;10869;52.238;10.716;2023-05-01T11:35:31;8.07;;;4.33;;
21416;SDS011;10869;52.238;10.716;2023-05-01T11:37:58;8.97;;;4.23;;
21416;SDS011;10869;52.238;10.716;2023-05-01T11:40:28;10.73;;;5.07;;
21416;SDS011;10869;52.238;10.716;2023-05-01T11:43:33;9.43;;;4.30;;
21416;SDS011;10869;52.238;10.716;2023-05-01T11:46:24;10.83;;;4.60;;
21416;SDS011;10869;52.238;10.716;2023-05-01T11:49:10;9.27;;;4.23;;
21416;SDS011;10869;52.238;10.716;2023-05-01T11:51:41;9.03;;;4.43;;
21416;SDS011;10869;52.238;10.716;2023-05-01T11:54:10;11.43;;;4.33;;
21416;SDS011;10869;52.238;10.716;2023-05-01T11:56:56;8.70;;;4.10;;
21416;SDS011;10869;52.238;10.716;2023-05-01T11:59:25;9.87;;;4.30;;
21416;SDS011;10869;52.238;10.716;2023-05-01T12:01:51;8.77;;;4.40;;
21416;SDS011;10869;52.238;10.716;2023-05-01T12:04:25;10.50;;;4.60;;
21416;SDS011;10869;52.238;10.716;2023-05-01T12:06:51;7.80;;;4.63;;
21416;SDS011;10869;52.238;10.716;2023-05-01T12:09:19;9.30;;;4.07;;
21416;SDS011;10869;52.238;10.716;2023-05-01T12:11:50;7.63;;;3.80;;
21416;SDS011;10869;52.238;10.716;2023-05-01T12:14:17;10.07;;;4.50;;
21416;SDS011;10869;52.238;10.716;2023-05-01T12:16:44;8.30;;;3.87;;
21416;SDS011;10869;52.238;10.716;2023-05-01T12:19:17;10.00;;;4.00;;
21416;SDS011;10869;52.238;10.716;2023-05-01T12:21:46;7.70;;;3.70;;
21416;SDS011;10869;52.238;10.716;2023-05-01T12:24:14;8.47;;;3.73;;
21416;SDS011;10869;52.238;10.716;2023-05-01T12:26:51;8.27;;;3.43;;
21416;SDS011;10869;52.238;10.716;2023-05-01T12:29:43;8.73;;;3.67;;
21416;SDS011;10869;52.238;10.716;2023-05-01T12:32:27;10.47;;;3.97;;
21416;SDS011;10869;52.238;10.716;2023-05-01T12:34:57;9.20;;;3.17;;
21416;SDS011;10869;52.238;10.716;2023-05-01T12:37:28;10.17;;;4.10;;
21416;SDS011;10869;52.238;10.716;2023-05-01T12:40:03;8.30;;;3.63;;
21416;SDS011;10869;52.238;10.716;2023-05-01T12:42:42;7.53;;;3.47;;
21416;SDS011;10869;52.238;10.716;2023-05-01T12:45:28;7.30;;;3.73;;
21416;SDS011;10869;52.238;10.716;2023-05-01T13:37:13;7.20;;;2.60;;
21416;SDS011;10869;52.238;10.716;2023-05-01T13:39:47;7.60;;;2.87;;
21416;SDS011;10869;52.238;10.716;2023-05-01T15:16:54;8.53;;;2.97;;
21416;SDS011;10869;52.238;10.716;2023-05-01T15:25:43;9.40;;;3.00;;
21416;SDS011;10869;52.238;10.716;2023-05-01T18:22:43;6.70;;;3.07;;
